sensor_id;sensor_type;location;lat;lon;timestamp;P1;durP1;ratioP1;P2;durP2;ratioP2
7444;SDS011;3764;48.126;11.594;2024-01-10T00:00:46;33.72;;;19.65;;
7444;SDS011;3764;48.126;11.594;2024-01-10T00:03:14;44.00;;;20.90;;
7444;SDS011;3764;48.126;11.594;2024-01-10T00:05:41;30.73;;;17.13;;
7444;SDS011;3764;48.126;11.594;2024-01-10T00:08:09;36.53;;;18.08;;
7444;SDS011;3764;48.126;11.594;2024-01-10T00:10:36;34.90;;;18.17;;
7444;SDS011;3764;48.126;11.594;2024-01-10T00:13:04;39.67;;;18.70;;
7444;SDS011;3764;48.126;11.594;2024-01-10T00:15:31;35.42;;;18.40;;
7444;SDS011;3764;48.126;11.594;2024-01-10T00:17:59;37.67;;;18.00;;
7444;SDS011;3764;48.126;11.594;2024-01-10T00:20:26;33.58;;;18.85;;
7444;SDS011;3764;48.126;11.594;2024-01-10T00:22:53;40.47;;;19.33;;
7444;SDS011;3764;48.126;11.594;2024-01-10T00:25:22;39.40;;;18.88;;
7444;SDS011;3764;48.126;11.594;2024-01-10T00:27:49;38.10;;;18.67;;
7444;SDS011;3764;48.126;11.594;2024-01-10T00:30:17;30.65;;;16.67;;
7444;SDS011;3764;48.126;11.594;2024-01-10T00:32:44;37.22;;;17.88;;
7444;SDS011;3764;48.126;11.594;2024-01-10T00:35:11;35.40;;;18.40;;
7444;SDS011;3764;48.126;11.594;2024-01-10T00:37:39;37.47;;;20.15;;
7444;SDS011;3764;48.126;11.594;2024-01-10T00:40:06;45.00;;;18.95;;
7444;SDS011;3764;48.126;11.594;2024-01-10T00:42:36;38.05;;;19.42;;
7444;SDS011;3764;48.126;11.594;2024-01-10T00:45:03;42.03;;;18.77;;
7444;SDS011;3764;48.126;11.594;2024-01-10T00:47:31;42.45;;;19.80;;
7444;SDS011;3764;48.126;11.594;2024-01-10T00:49:59;41.60;;;18.77;;
7444;SDS011;3764;48.126;11.594;2024-01-10T00:52:26;42.38;;;18.38;;
7444;SDS011;3764;48.126;11.594;2024-01-10T00:54:53;43.67;;;18.27;;
7444;SDS011;3764;48.126;11.594;2024-01-10T00:57:20;29.40;;;16.17;;
7444;SDS011;3764;48.126;11.594;2024-01-10T00:59:49;37.88;;;17.15;;
7444;SDS011;3764;48.126;11.594;2024-01-10T01:02:17;41.80;;;19.77;;
7444;SDS011;3764;48.126;11.594;2024-01-10T01:04:44;43.05;;;19.33;;
7444;SDS011;3764;48.126;11.594;2024-01-10T01:07:11;40.97;;;21.07;;
7444;SDS011;3764;48.126;11.594;2024-01-10T01:09:39;45.05;;;20.17;;
7444;SDS011;3764;48.126;11.594;2024-01-10T01:12:06;40.90;;;19.85;;
7444;SDS011;3764;48.126;11.594;2024-01-10T01:14:33;40.10;;;19.48;;
7444;SDS011;3764;48.126;11.594;2024-01-10T01:17:02;40.25;;;18.60;;
7444;SDS011;3764;48.126;11.594;2024-01-10T01:19:30;36.80;;;19.70;;
7444;SDS011;3764;48.126;11.594;2024-01-10T01:21:57;42.47;;;18.73;;
7444;SDS011;3764;48.126;11.594;2024-01-10T01:24:24;38.17;;;18.73;;
7444;SDS011;3764;48.126;11.594;2024-01-10T01:26:52;37.72;;;18.08;;
7444;SDS011;3764;48.126;11.594;2024-01-10T01:29:19;44.72;;;18.88;;
7444;SDS011;3764;48.126;11.594;2024-01-10T01:31:47;44.95;;;19.90;;
7444;SDS011;3764;48.126;11.594;2024-01-10T01:34:16;39.63;;;19.05;;
7444;SDS011;3764;48.126;11.594;2024-01-10T01:36:43;42.58;;;21.45;;
7444;SDS011;3764;48.126;11.594;2024-01-10T01:39:11;47.30;;;20.48;;
7444;SDS011;3764;48.126;11.594;2024-01-10T01:41:38;49.70;;;19.92;;
7444;SDS011;3764;48.126;11.594;2024-01-10T01:44:05;41.05;;;17.98;;
7444;SDS011;3764;48.126;11.594;2024-01-10T01:46:33;44.15;;;17.60;;
7444;SDS011;3764;48.126;11.594;2024-01-10T01:49:01;43.78;;;19.30;;
7444;SDS011;3764;48.126;11.594;2024-01-10T01:51:30;46.55;;;20.65;;
7444;SDS011;3764;48.126;11.594;2024-01-10T01:53:58;41.83;;;19.73;;
7444;SDS011;3764;48.126;11.594;2024-01-10T01:56:25;46.95;;;20.88;;
7444;SDS011;3764;48.126;11.594;2024-01-10T01:58:53;39.80;;;19.23;;
7444;SDS011;3764;48.126;11.594;2024-01-10T02:01:21;46.50;;;20.55;;
7444;SDS011;3764;48.126;11.594;2024-01-10T02:03:49;45.85;;;20.10;;
7444;SDS011;3764;48.126;11.594;2024-01-10T02:06:16;51.28;;;22.20;;
7444;SDS011;3764;48.126;11.594;2024-01-10T02:08:45;34.35;;;17.98;;
7444;SDS011;3764;48.126;11.594;2024-01-10T02:11:12;42.45;;;18.65;;
7444;SDS011;3764;48.126;11.594;2024-01-10T02:13:40;45.28;;;18.55;;
7444;SDS011;3764;48.126;11.594;2024-01-10T02:16:07;37.85;;;16.63;;
7444;SDS011;3764;48.126;11.594;2024-01-10T02:18:35;51.83;;;21.63;;
7444;SDS011;3764;48.126;11.594;2024-01-10T02:21:04;43.00;;;21.02;;
7444;SDS011;3764;48.126;11.594;2024-01-10T02:23:31;46.15;;;19.45;;
7444;SDS011;3764;48.126;11.594;2024-01-10T02:26:00;45.38;;;20.75;;
7444;SDS011;3764;48.126;11.594;2024-01-10T02:28:28;44.72;;;19.88;;
7444;SDS011;3764;48.126;11.594;2024-01-10T02:30:55;40.60;;;21.05;;
7444;SDS011;3764;48.126;11.594;2024-01-10T02:33:24;41.22;;;20.15;;
7444;SDS011;3764;48.126;11.594;2024-01-10T02:35:51;39.92;;;18.80;;
7444;SDS011;3764;48.126;11.594;2024-01-10T02:38:19;46.45;;;21.85;;
7444;SDS011;3764;48.126;11.594;2024-01-10T02:40:48;46.00;;;21.00;;
7444;SDS011;3764;48.126;11.594;2024-01-10T02:43:17;51.55;;;20.90;;
7444;SDS011;3764;48.126;11.594;2024-01-10T02:45:44;49.78;;;21.80;;
7444;SDS011;3764;48.126;11.594;2024-01-10T02:48:12;44.58;;;18.33;;
7444;SDS011;3764;48.126;11.594;2024-01-10T02:50:39;49.38;;;23.33;;
7444;SDS011;3764;48.126;11.594;2024-01-10T02:53:07;43.15;;;19.08;;
7444;SDS011;3764;48.126;11.594;2024-01-10T02:55:34;48.45;;;20.30;;
7444;SDS011;3764;48.126;11.594;2024-01-10T02:58:01;38.05;;;19.25;;
7444;SDS011;3764;48.126;11.594;2024-01-10T03:00:30;42.15;;;20.25;;
7444;SDS011;3764;48.126;11.594;2024-01-10T03:02:57;39.67;;;20.35;;
7444;SDS011;3764;48.126;11.594;2024-01-10T03:05:25;46.42;;;19.45;;
7444;SDS011;3764;48.126;11.594;2024-01-10T03:07:52;46.58;;;20.88;;
7444;SDS011;3764;48.126;11.594;2024-01-10T03:10:20;45.38;;;20.60;;
7444;SDS011;3764;48.126;11.594;2024-01-10T03:12:47;50.38;;;21.35;;
7444;SDS011;3764;48.126;11.594;2024-01-10T03:15:15;45.55;;;20.55;;
7444;SDS011;3764;48.126;11.594;2024-01-10T03:17:43;54.65;;;21.58;;
7444;SDS011;3764;48.126;11.594;2024-01-10T03:20:11;49.10;;;20.67;;
7444;SDS011;3764;48.126;11.594;2024-01-10T03:22:38;42.30;;;20.55;;
7444;SDS011;3764;48.126;11.594;2024-01-10T03:25:06;44.47;;;19.17;;
7444;SDS011;3764;48.126;11.594;2024-01-10T03:27:33;47.22;;;19.20;;
7444;SDS011;3764;48.126;11.594;2024-01-10T03:30:01;45.80;;;19.90;;
7444;SDS011;3764;48.126;11.594;2024-01-10T03:32:28;43.00;;;20.48;;
7444;SDS011;3764;48.126;11.594;2024-01-10T03:34:57;42.95;;;20.08;;
7444;SDS011;3764;48.126;11.594;2024-01-10T03:37:24;42.53;;;21.00;;
7444;SDS011;3764;48.126;11.594;2024-01-10T03:39:51;37.33;;;17.63;;
7444;SDS011;3764;48.126;11.594;2024-01-10T03:42:19;45.85;;;21.70;;
7444;SDS011;3764;48.126;11.594;2024-01-10T03:44:46;55.03;;;21.05;;
7444;SDS011;3764;48.126;11.594;2024-01-10T03:47:13;36.40;;;16.08;;
7444;SDS011;3764;48.126;11.594;2024-01-10T03:49:41;47.53;;;18.77;;
7444;SDS011;3764;48.126;11.594;2024-01-10T03:52:09;50.72;;;21.30;;
7444;SDS011;3764;48.126;11.594;2024-01-10T03:54:37;41.95;;;19.58;;
7444;SDS011;3764;48.126;11.594;2024-01-10T03:57:06;38.50;;;17.33;;
7444;SDS011;3764;48.126;11.594;2024-01-10T03:59:33;38.50;;;16.50;;
7444;SDS011;3764;48.126;11.594;2024-01-10T04:02:00;43.15;;;18.02;;
7444;SDS011;3764;48.126;11.594;2024-01-10T04:04:28;42.60;;;18.48;;
7444;SDS011;3764;48.126;11.594;2024-01-10T04:06:55;44.95;;;19.50;;
7444;SDS011;3764;48.126;11.594;2024-01-10T04:09:24;41.90;;;17.33;;
7444;SDS011;3764;48.126;11.594;2024-01-10T04:11:51;45.75;;;19.27;;
7444;SDS011;3764;48.126;11.594;2024-01-10T04:14:18;36.47;;;17.50;;
7444;SDS011;3764;48.126;11.594;2024-01-10T04:16:46;46.22;;;19.50;;
7444;SDS011;3764;48.126;11.594;2024-01-10T04:19:13;48.00;;;19.50;;
7444;SDS011;3764;48.126;11.594;2024-01-10T04:21:41;44.03;;;18.92;;
7444;SDS011;3764;48.126;11.594;2024-01-10T04:24:08;45.42;;;20.70;;
7444;SDS011;3764;48.126;11.594;2024-01-10T04:26:37;44.33;;;19.50;;
7444;SDS011;3764;48.126;11.594;2024-01-10T04:29:05;48.50;;;19.42;;
7444;SDS011;3764;48.126;11.594;2024-01-10T04:31:32;39.28;;;18.98;;
7444;SDS011;3764;48.126;11.594;2024-01-10T04:34:00;44.92;;;19.48;;
7444;SDS011;3764;48.126;11.594;2024-01-10T04:36:28;34.97;;;18.83;;
7444;SDS011;3764;48.126;11.594;2024-01-10T04:38:55;38.83;;;18.13;;
7444;SDS011;3764;48.126;11.594;2024-01-10T04:41:23;37.90;;;17.40;;
7444;SDS011;3764;48.126;11.594;2024-01-10T04:43:51;40.72;;;19.50;;
7444;SDS011;3764;48.126;11.594;2024-01-10T04:46:19;50.92;;;20.73;;
7444;SDS011;3764;48.126;11.594;2024-01-10T04:48:46;39.53;;;17.98;;
7444;SDS011;3764;48.126;11.594;2024-01-10T04:51:14;41.40;;;19.67;;
7444;SDS011;3764;48.126;11.594;2024-01-10T04:53:41;45.47;;;19.60;;
7444;SDS011;3764;48.126;11.594;2024-01-10T04:56:08;55.17;;;22.60;;
7444;SDS011;3764;48.126;11.594;2024-01-10T04:58:36;43.92;;;17.85;;
7444;SDS011;3764;48.126;11.594;2024-01-10T05:01:04;36.83;;;16.88;;
7444;SDS011;3764;48.126;11.594;2024-01-10T05:03:32;41.92;;;17.80;;
7444;SDS011;3764;48.126;11.594;2024-01-10T05:05:59;46.47;;;19.45;;
7444;SDS011;3764;48.126;11.594;2024-01-10T05:08:27;40.78;;;17.50;;
7444;SDS011;3764;48.126;11.594;2024-01-10T05:10:54;40.90;;;18.23;;
7444;SDS011;3764;48.126;11.594;2024-01-10T05:13:21;41.78;;;17.52;;
7444;SDS011;3764;48.126;11.594;2024-01-10T05:15:48;36.10;;;18.45;;
7444;SDS011;3764;48.126;11.594;2024-01-10T05:18:17;38.08;;;17.52;;
7444;SDS011;3764;48.126;11.594;2024-01-10T05:20:45;40.53;;;16.70;;
7444;SDS011;3764;48.126;11.594;2024-01-10T05:23:12;32.65;;;16.92;;
7444;SDS011;3764;48.126;11.594;2024-01-10T05:25:39;37.42;;;16.63;;
7444;SDS011;3764;48.126;11.594;2024-01-10T05:28:07;39.40;;;17.40;;
7444;SDS011;3764;48.126;11.594;2024-01-10T05:30:34;44.47;;;18.27;;
7444;SDS011;3764;48.126;11.594;2024-01-10T05:33:01;42.80;;;17.60;;
7444;SDS011;3764;48.126;11.594;2024-01-10T05:35:30;49.40;;;19.90;;
7444;SDS011;3764;48.126;11.594;2024-01-10T05:37:57;35.95;;;15.05;;
7444;SDS011;3764;48.126;11.594;2024-01-10T05:40:25;44.72;;;18.10;;
7444;SDS011;3764;48.126;11.594;2024-01-10T05:42:52;46.30;;;18.85;;
7444;SDS011;3764;48.126;11.594;2024-01-10T05:45:20;45.30;;;19.27;;
7444;SDS011;3764;48.126;11.594;2024-01-10T05:47:47;47.13;;;17.95;;
7444;SDS011;3764;48.126;11.594;2024-01-10T05:50:14;46.17;;;18.70;;
7444;SDS011;3764;48.126;11.594;2024-01-10T05:52:43;40.28;;;18.15;;
7444;SDS011;3764;48.126;11.594;2024-01-10T05:55:11;47.30;;;18.45;;
7444;SDS011;3764;48.126;11.594;2024-01-10T05:57:38;53.80;;;22.33;;
7444;SDS011;3764;48.126;11.594;2024-01-10T06:00:06;40.40;;;19.67;;
7444;SDS011;3764;48.126;11.594;2024-01-10T06:02:35;44.80;;;20.90;;
7444;SDS011;3764;48.126;11.594;2024-01-10T06:05:04;46.10;;;19.55;;
7444;SDS011;3764;48.126;11.594;2024-01-10T06:07:34;40.45;;;17.27;;
7444;SDS011;3764;48.126;11.594;2024-01-10T06:10:03;46.05;;;19.00;;
7444;SDS011;3764;48.126;11.594;2024-01-10T06:12:31;45.60;;;18.63;;
7444;SDS011;3764;48.126;11.594;2024-01-10T06:14:58;45.13;;;20.50;;
7444;SDS011;3764;48.126;11.594;2024-01-10T06:17:26;38.13;;;18.75;;
7444;SDS011;3764;48.126;11.594;2024-01-10T06:19:53;39.53;;;18.65;;
7444;SDS011;3764;48.126;11.594;2024-01-10T06:22:20;38.72;;;18.40;;
7444;SDS011;3764;48.126;11.594;2024-01-10T06:24:50;49.17;;;19.45;;
7444;SDS011;3764;48.126;11.594;2024-01-10T06:27:19;46.22;;;19.42;;
7444;SDS011;3764;48.126;11.594;2024-01-10T06:29:46;52.00;;;21.45;;
7444;SDS011;3764;48.126;11.594;2024-01-10T06:32:13;45.17;;;17.45;;
7444;SDS011;3764;48.126;11.594;2024-01-10T06:34:41;42.83;;;17.77;;
7444;SDS011;3764;48.126;11.594;2024-01-10T06:37:08;40.05;;;19.30;;
7444;SDS011;3764;48.126;11.594;2024-01-10T06:39:37;42.22;;;18.30;;
7444;SDS011;3764;48.126;11.594;2024-01-10T06:42:05;39.67;;;18.52;;
7444;SDS011;3764;48.126;11.594;2024-01-10T06:44:35;43.25;;;18.60;;
7444;SDS011;3764;48.126;11.594;2024-01-10T06:47:02;44.65;;;19.45;;
7444;SDS011;3764;48.126;11.594;2024-01-10T06:49:30;38.88;;;19.75;;
7444;SDS011;3764;48.126;11.594;2024-01-10T06:51:57;40.30;;;18.83;;
7444;SDS011;3764;48.126;11.594;2024-01-10T06:54:25;43.25;;;18.58;;
7444;SDS011;3764;48.126;11.594;2024-01-10T06:56:53;50.97;;;19.35;;
7444;SDS011;3764;48.126;11.594;2024-01-10T06:59:20;44.72;;;19.55;;
7444;SDS011;3764;48.126;11.594;2024-01-10T07:01:52;43.55;;;18.50;;
7444;SDS011;3764;48.126;11.594;2024-01-10T07:04:21;39.90;;;19.63;;
7444;SDS011;3764;48.126;11.594;2024-01-10T07:06:49;43.47;;;17.65;;
7444;SDS011;3764;48.126;11.594;2024-01-10T07:09:16;43.72;;;18.83;;
7444;SDS011;3764;48.126;11.594;2024-01-10T07:11:45;40.72;;;17.33;;
7444;SDS011;3764;48.126;11.594;2024-01-10T07:14:13;50.20;;;20.50;;
7444;SDS011;3764;48.126;11.594;2024-01-10T07:16:40;39.33;;;16.75;;
7444;SDS011;3764;48.126;11.594;2024-01-10T07:19:12;42.30;;;18.98;;
7444;SDS011;3764;48.126;11.594;2024-01-10T07:21:39;47.80;;;17.60;;
7444;SDS011;3764;48.126;11.594;2024-01-10T07:24:07;45.63;;;20.00;;
7444;SDS011;3764;48.126;11.594;2024-01-10T07:26:35;52.40;;;25.00;;
7444;SDS011;3764;48.126;11.594;2024-01-10T07:29:02;46.78;;;19.25;;
7444;SDS011;3764;48.126;11.594;2024-01-10T07:31:33;38.67;;;18.45;;
7444;SDS011;3764;48.126;11.594;2024-01-10T07:34:01;46.40;;;19.40;;
7444;SDS011;3764;48.126;11.594;2024-01-10T07:36:31;43.90;;;18.05;;
7444;SDS011;3764;48.126;11.594;2024-01-10T07:39:00;44.03;;;18.60;;
7444;SDS011;3764;48.126;11.594;2024-01-10T07:41:27;56.63;;;21.63;;
7444;SDS011;3764;48.126;11.594;2024-01-10T07:43:54;48.03;;;20.10;;
7444;SDS011;3764;48.126;11.594;2024-01-10T07:46:22;40.33;;;19.45;;
7444;SDS011;3764;48.126;11.594;2024-01-10T07:48:49;48.00;;;19.75;;
7444;SDS011;3764;48.126;11.594;2024-01-10T07:51:17;51.53;;;21.05;;
7444;SDS011;3764;48.126;11.594;2024-01-10T07:53:46;53.60;;;20.17;;
7444;SDS011;3764;48.126;11.594;2024-01-10T07:56:13;48.55;;;20.92;;
7444;SDS011;3764;48.126;11.594;2024-01-10T07:58:41;57.97;;;22.17;;
7444;SDS011;3764;48.126;11.594;2024-01-10T08:01:08;47.45;;;21.63;;
7444;SDS011;3764;48.126;11.594;2024-01-10T08:03:36;53.90;;;19.27;;
7444;SDS011;3764;48.126;11.594;2024-01-10T08:06:04;50.05;;;21.48;;
7444;SDS011;3764;48.126;11.594;2024-01-10T08:08:32;46.60;;;21.95;;
7444;SDS011;3764;48.126;11.594;2024-01-10T08:11:01;46.90;;;20.27;;
7444;SDS011;3764;48.126;11.594;2024-01-10T08:13:28;48.58;;;20.63;;
7444;SDS011;3764;48.126;11.594;2024-01-10T08:15:56;51.58;;;22.65;;
7444;SDS011;3764;48.126;11.594;2024-01-10T08:18:23;49.97;;;22.88;;
7444;SDS011;3764;48.126;11.594;2024-01-10T08:20:50;51.40;;;20.60;;
7444;SDS011;3764;48.126;11.594;2024-01-10T08:23:18;45.03;;;19.88;;
7444;SDS011;3764;48.126;11.594;2024-01-10T08:25:45;48.53;;;20.77;;
7444;SDS011;3764;48.126;11.594;2024-01-10T08:28:14;62.17;;;20.35;;
7444;SDS011;3764;48.126;11.594;2024-01-10T08:30:41;58.65;;;21.55;;
7444;SDS011;3764;48.126;11.594;2024-01-10T08:33:09;51.22;;;20.45;;
7444;SDS011;3764;48.126;11.594;2024-01-10T08:35:36;51.60;;;20.50;;
7444;SDS011;3764;48.126;11.594;2024-01-10T08:38:05;44.88;;;21.33;;
7444;SDS011;3764;48.126;11.594;2024-01-10T08:40:33;52.78;;;21.80;;
7444;SDS011;3764;48.126;11.594;2024-01-10T08:43:00;46.72;;;21.90;;
7444;SDS011;3764;48.126;11.594;2024-01-10T08:45:29;48.80;;;21.25;;
7444;SDS011;3764;48.126;11.594;2024-01-10T08:47:56;59.38;;;23.38;;
7444;SDS011;3764;48.126;11.594;2024-01-10T08:50:24;56.25;;;23.88;;
7444;SDS011;3764;48.126;11.594;2024-01-10T08:52:51;43.63;;;20.23;;
7444;SDS011;3764;48.126;11.594;2024-01-10T08:55:19;50.35;;;21.88;;
7444;SDS011;3764;48.126;11.594;2024-01-10T08:57:46;49.50;;;23.25;;
7444;SDS011;3764;48.126;11.594;2024-01-10T09:00:14;46.47;;;22.52;;
7444;SDS011;3764;48.126;11.594;2024-01-10T09:02:43;51.50;;;23.40;;
7444;SDS011;3764;48.126;11.594;2024-01-10T09:05:11;46.67;;;21.38;;
7444;SDS011;3764;48.126;11.594;2024-01-10T09:07:38;51.97;;;22.33;;
7444;SDS011;3764;48.126;11.594;2024-01-10T09:10:07;47.58;;;21.30;;
7444;SDS011;3764;48.126;11.594;2024-01-10T09:12:35;58.55;;;22.38;;
7444;SDS011;3764;48.126;11.594;2024-01-10T09:15:02;53.13;;;21.42;;
7444;SDS011;3764;48.126;11.594;2024-01-10T09:17:30;47.78;;;20.05;;
7444;SDS011;3764;48.126;11.594;2024-01-10T09:19:59;49.60;;;24.15;;
7444;SDS011;3764;48.126;11.594;2024-01-10T09:22:28;50.38;;;21.77;;
7444;SDS011;3764;48.126;11.594;2024-01-10T09:24:55;49.30;;;20.60;;
7444;SDS011;3764;48.126;11.594;2024-01-10T09:27:24;58.75;;;23.70;;
7444;SDS011;3764;48.126;11.594;2024-01-10T09:29:52;51.70;;;23.60;;
7444;SDS011;3764;48.126;11.594;2024-01-10T09:32:19;55.60;;;22.35;;
7444;SDS011;3764;48.126;11.594;2024-01-10T09:34:47;57.35;;;23.30;;
7444;SDS011;3764;48.126;11.594;2024-01-10T09:37:16;55.90;;;23.58;;
7444;SDS011;3764;48.126;11.594;2024-01-10T09:39:43;46.25;;;21.35;;
7444;SDS011;3764;48.126;11.594;2024-01-10T09:42:11;56.10;;;23.58;;
7444;SDS011;3764;48.126;11.594;2024-01-10T09:44:38;51.63;;;21.83;;
7444;SDS011;3764;48.126;11.594;2024-01-10T09:47:05;49.00;;;21.85;;
7444;SDS011;3764;48.126;11.594;2024-01-10T09:49:33;51.28;;;22.27;;
7444;SDS011;3764;48.126;11.594;2024-01-10T09:52:03;58.90;;;22.67;;
7444;SDS011;3764;48.126;11.594;2024-01-10T09:54:38;53.58;;;22.20;;
7444;SDS011;3764;48.126;11.594;2024-01-10T09:57:08;48.00;;;20.98;;
7444;SDS011;3764;48.126;11.594;2024-01-10T09:59:36;50.95;;;21.55;;
7444;SDS011;3764;48.126;11.594;2024-01-10T10:02:03;51.63;;;21.48;;
7444;SDS011;3764;48.126;11.594;2024-01-10T10:04:30;46.10;;;22.13;;
7444;SDS011;3764;48.126;11.594;2024-01-10T10:06:58;46.38;;;21.95;;
7444;SDS011;3764;48.126;11.594;2024-01-10T10:09:26;43.33;;;20.25;;
7444;SDS011;3764;48.126;11.594;2024-01-10T10:11:57;44.25;;;20.42;;
7444;SDS011;3764;48.126;11.594;2024-01-10T10:14:26;52.88;;;21.15;;
7444;SDS011;3764;48.126;11.594;2024-01-10T10:16:55;51.28;;;21.42;;
7444;SDS011;3764;48.126;11.594;2024-01-10T10:19:23;50.53;;;20.67;;
7444;SDS011;3764;48.126;11.594;2024-01-10T10:21:50;47.67;;;19.92;;
7444;SDS011;3764;48.126;11.594;2024-01-10T10:24:18;45.50;;;20.60;;
7444;SDS011;3764;48.126;11.594;2024-01-10T10:26:46;43.90;;;19.00;;
7444;SDS011;3764;48.126;11.594;2024-01-10T10:29:18;41.67;;;19.85;;
7444;SDS011;3764;48.126;11.594;2024-01-10T10:31:47;50.72;;;19.20;;
7444;SDS011;3764;48.126;11.594;2024-01-10T10:34:16;48.85;;;21.63;;
7444;SDS011;3764;48.126;11.594;2024-01-10T10:36:48;49.50;;;20.75;;
7444;SDS011;3764;48.126;11.594;2024-01-10T10:39:15;48.63;;;20.90;;
7444;SDS011;3764;48.126;11.594;2024-01-10T10:41:43;42.22;;;21.10;;
7444;SDS011;3764;48.126;11.594;2024-01-10T10:44:15;57.55;;;25.58;;
7444;SDS011;3764;48.126;11.594;2024-01-10T10:46:52;50.58;;;22.40;;
7444;SDS011;3764;48.126;11.594;2024-01-10T10:49:22;45.03;;;19.95;;
7444;SDS011;3764;48.126;11.594;2024-01-10T10:51:57;44.92;;;20.73;;
7444;SDS011;3764;48.126;11.594;2024-01-10T10:54:27;54.15;;;22.70;;
7444;SDS011;3764;48.126;11.594;2024-01-10T10:56:57;61.35;;;22.27;;
7444;SDS011;3764;48.126;11.594;2024-01-10T10:59:27;45.35;;;19.25;;
7444;SDS011;3764;48.126;11.594;2024-01-10T11:01:58;48.03;;;23.77;;
7444;SDS011;3764;48.126;11.594;2024-01-10T11:04:25;43.47;;;21.33;;
7444;SDS011;3764;48.126;11.594;2024-01-10T11:06:53;47.72;;;21.23;;
7444;SDS011;3764;48.126;11.594;2024-01-10T11:09:20;58.83;;;24.25;;
7444;SDS011;3764;48.126;11.594;2024-01-10T11:12:06;48.95;;;20.90;;
7444;SDS011;3764;48.126;11.594;2024-01-10T11:14:50;46.45;;;22.05;;
7444;SDS011;3764;48.126;11.594;2024-01-10T11:17:48;39.35;;;19.75;;
7444;SDS011;3764;48.126;11.594;2024-01-10T11:20:42;50.38;;;21.75;;
7444;SDS011;3764;48.126;11.594;2024-01-10T11:23:38;47.47;;;22.35;;
7444;SDS011;3764;48.126;11.594;2024-01-10T11:26:10;45.15;;;22.25;;
7444;SDS011;3764;48.126;11.594;2024-01-10T11:28:39;46.25;;;22.02;;
7444;SDS011;3764;48.126;11.594;2024-01-10T11:31:08;46.75;;;22.55;;
7444;SDS011;3764;48.126;11.594;2024-01-10T11:33:39;47.95;;;21.88;;
7444;SDS011;3764;48.126;11.594;2024-01-10T11:36:09;50.88;;;19.58;;
7444;SDS011;3764;48.126;11.594;2024-01-10T11:38:40;39.97;;;21.20;;
7444;SDS011;3764;48.126;11.594;2024-01-10T11:41:10;50.55;;;20.60;;
7444;SDS011;3764;48.126;11.594;2024-01-10T11:43:38;44.80;;;20.52;;
7444;SDS011;3764;48.126;11.594;2024-01-10T11:46:06;51.55;;;22.73;;
7444;SDS011;3764;48.126;11.594;2024-01-10T11:48:36;47.97;;;23.60;;
7444;SDS011;3764;48.126;11.594;2024-01-10T11:51:04;48.53;;;24.38;;
7444;SDS011;3764;48.126;11.594;2024-01-10T11:53:39;52.78;;;23.42;;
7444;SDS011;3764;48.126;11.594;2024-01-10T11:56:11;54.58;;;23.77;;
7444;SDS011;3764;48.126;11.594;2024-01-10T11:58:53;53.07;;;29.37;;
7444;SDS011;3764;48.126;11.594;2024-01-10T12:01:21;48.50;;;25.05;;
7444;SDS011;3764;48.126;11.594;2024-01-10T12:03:51;51.42;;;23.88;;
7444;SDS011;3764;48.126;11.594;2024-01-10T12:06:20;53.40;;;23.10;;
7444;SDS011;3764;48.126;11.594;2024-01-10T12:08:48;46.92;;;22.80;;
7444;SDS011;3764;48.126;11.594;2024-01-10T12:11:16;54.55;;;22.90;;
7444;SDS011;3764;48.126;11.594;2024-01-10T12:13:43;48.55;;;23.08;;
7444;SDS011;3764;48.126;11.594;2024-01-10T12:16:11;52.92;;;24.77;;
7444;SDS011;3764;48.126;11.594;2024-01-10T12:18:39;54.63;;;24.15;;
7444;SDS011;3764;48.126;11.594;2024-01-10T12:21:10;62.95;;;23.23;;
7444;SDS011;3764;48.126;11.594;2024-01-10T12:23:38;54.53;;;26.40;;
7444;SDS011;3764;48.126;11.594;2024-01-10T12:26:07;51.13;;;23.83;;
7444;SDS011;3764;48.126;11.594;2024-01-10T12:28:38;51.40;;;24.25;;
7444;SDS011;3764;48.126;11.594;2024-01-10T12:31:05;55.90;;;26.02;;
7444;SDS011;3764;48.126;11.594;2024-01-10T12:33:34;62.95;;;25.05;;
7444;SDS011;3764;48.126;11.594;2024-01-10T12:36:06;58.05;;;25.88;;
7444;SDS011;3764;48.126;11.594;2024-01-10T12:38:36;53.30;;;25.15;;
7444;SDS011;3764;48.126;11.594;2024-01-10T12:41:04;55.90;;;24.58;;
7444;SDS011;3764;48.126;11.594;2024-01-10T12:43:34;50.85;;;24.30;;
7444;SDS011;3764;48.126;11.594;2024-01-10T12:46:02;54.05;;;22.65;;
7444;SDS011;3764;48.126;11.594;2024-01-10T12:48:30;52.63;;;22.45;;
7444;SDS011;3764;48.126;11.594;2024-01-10T12:50:58;54.47;;;26.08;;
7444;SDS011;3764;48.126;11.594;2024-01-10T12:53:31;55.38;;;24.42;;
7444;SDS011;3764;48.126;11.594;2024-01-10T12:56:00;50.75;;;23.70;;
7444;SDS011;3764;48.126;11.594;2024-01-10T12:58:27;63.00;;;24.92;;
7444;SDS011;3764;48.126;11.594;2024-01-10T13:00:55;65.22;;;24.25;;
7444;SDS011;3764;48.126;11.594;2024-01-10T13:03:23;59.85;;;23.42;;
7444;SDS011;3764;48.126;11.594;2024-01-10T13:05:50;53.05;;;25.02;;
7444;SDS011;3764;48.126;11.594;2024-01-10T13:08:18;51.55;;;25.70;;
7444;SDS011;3764;48.126;11.594;2024-01-10T13:10:46;49.50;;;23.92;;
7444;SDS011;3764;48.126;11.594;2024-01-10T13:13:15;52.35;;;25.10;;
7444;SDS011;3764;48.126;11.594;2024-01-10T13:15:43;55.15;;;23.98;;
7444;SDS011;3764;48.126;11.594;2024-01-10T13:18:11;51.28;;;25.83;;
7444;SDS011;3764;48.126;11.594;2024-01-10T13:20:38;49.22;;;23.92;;
7444;SDS011;3764;48.126;11.594;2024-01-10T13:23:06;52.47;;;23.98;;
7444;SDS011;3764;48.126;11.594;2024-01-10T13:25:34;59.35;;;24.90;;
7444;SDS011;3764;48.126;11.594;2024-01-10T13:28:02;53.75;;;25.23;;
7444;SDS011;3764;48.126;11.594;2024-01-10T13:30:31;80.00;;;28.45;;
7444;SDS011;3764;48.126;11.594;2024-01-10T13:32:59;46.35;;;23.67;;
7444;SDS011;3764;48.126;11.594;2024-01-10T13:35:26;57.00;;;25.33;;
7444;SDS011;3764;48.126;11.594;2024-01-10T13:37:54;46.38;;;23.20;;
7444;SDS011;3764;48.126;11.594;2024-01-10T13:40:21;48.58;;;22.85;;
7444;SDS011;3764;48.126;11.594;2024-01-10T13:42:50;54.85;;;24.95;;
7444;SDS011;3764;48.126;11.594;2024-01-10T13:45:17;60.70;;;26.30;;
7444;SDS011;3764;48.126;11.594;2024-01-10T13:47:47;61.42;;;24.75;;
7444;SDS011;3764;48.126;11.594;2024-01-10T13:50:14;51.80;;;23.10;;
7444;SDS011;3764;48.126;11.594;2024-01-10T13:52:42;55.72;;;23.73;;
7444;SDS011;3764;48.126;11.594;2024-01-10T13:55:09;62.03;;;26.60;;
7444;SDS011;3764;48.126;11.594;2024-01-10T13:57:37;45.70;;;23.08;;
7444;SDS011;3764;48.126;11.594;2024-01-10T14:00:05;61.03;;;25.42;;
7444;SDS011;3764;48.126;11.594;2024-01-10T14:02:33;51.30;;;22.70;;
7444;SDS011;3764;48.126;11.594;2024-01-10T14:05:03;57.97;;;25.10;;
7444;SDS011;3764;48.126;11.594;2024-01-10T14:07:31;60.75;;;24.55;;
7444;SDS011;3764;48.126;11.594;2024-01-10T14:09:59;53.35;;;23.77;;
7444;SDS011;3764;48.126;11.594;2024-01-10T14:12:27;60.50;;;24.75;;
7444;SDS011;3764;48.126;11.594;2024-01-10T14:14:55;58.42;;;25.88;;
7444;SDS011;3764;48.126;11.594;2024-01-10T14:17:23;56.45;;;24.02;;
7444;SDS011;3764;48.126;11.594;2024-01-10T14:19:51;59.33;;;27.40;;
7444;SDS011;3764;48.126;11.594;2024-01-10T14:22:20;55.88;;;24.55;;
7444;SDS011;3764;48.126;11.594;2024-01-10T14:24:49;54.90;;;25.10;;
7444;SDS011;3764;48.126;11.594;2024-01-10T14:27:16;49.60;;;23.92;;
7444;SDS011;3764;48.126;11.594;2024-01-10T14:29:44;48.78;;;22.08;;
7444;SDS011;3764;48.126;11.594;2024-01-10T14:32:11;53.60;;;23.80;;
7444;SDS011;3764;48.126;11.594;2024-01-10T14:34:39;52.13;;;23.15;;
7444;SDS011;3764;48.126;11.594;2024-01-10T14:37:06;53.65;;;23.70;;
7444;SDS011;3764;48.126;11.594;2024-01-10T14:39:35;62.17;;;26.27;;